Time;durP1;ratioP1;P1;durP2;ratioP2;P2;SDS_P1;SDS_P2;PMS_P1;PMS_P2;Temp;Humidity;BMP_temperature;BMP_pressure;BME280_temperature;BME280_humidity;BME280_pressure;Samples;Min_cycle;Max_cycle;Signal;HPM_P1;HPM_P2
2021/09/04 00:00:15;;;;;;;21.38;11.93;;;;;;;;;;4934387;29;20130;-85
2021/09/04 00:02:40;;;;;;;20.80;11.85;;;;;;;;;;4918896;29;20046;-85
2021/09/04 00:05:06;;;;;;;20.88;12.10;;;;;;;;;;4914969;29;20044;-85
2021/09/04 00:07:32;;;;;;;17.15;10.90;;;;;;;;;;4894992;29;20039;-85
2021/09/04 00:09:59;;;;;;;17.83;11.05;;;;;;;;;;4931663;29;20042;-85
2021/09/04 00:12:26;;;;;;;19.75;12.02;;;;;;;;;;4908445;29;20559;-85
2021/09/04 00:14:53;;;;;;;19.10;12.07;;;;;;;;;;4912381;29;20508;-85
2021/09/04 00:17:19;;;;;;;20.00;11.75;;;;;;;;;;4936803;29;20035;-85
2021/09/04 00:19:44;;;;;;;18.00;11.00;;;;;;;;;;4935178;29;20078;-85
2021/09/04 00:22:10;;;;;;;17.50;10.88;;;;;;;;;;4928510;29;20086;-85
2021/09/04 00:24:35;;;;;;;18.38;11.32;;;;;;;;;;4914894;29;20036;-85
2021/09/04 00:27:01;;;;;;;21.42;12.25;;;;;;;;;;4932118;29;20031;-85
2021/09/04 00:29:27;;;;;;;18.13;10.88;;;;;;;;;;4912249;29;20063;-85
2021/09/04 00:31:53;;;;;;;17.15;10.57;;;;;;;;;;4932879;29;20036;-85
2021/09/04 00:34:18;;;;;;;16.63;10.77;;;;;;;;;;4897605;29;20123;-85
2021/09/04 00:36:44;;;;;;;18.08;10.85;;;;;;;;;;4902093;29;20043;-85
2021/09/04 00:39:09;;;;;;;20.83;10.93;;;;;;;;;;4902831;29;20446;-85
2021/09/04 00:41:35;;;;;;;19.70;10.65;;;;;;;;;;4920401;29;20035;-85
2021/09/04 00:44:02;;;;;;;16.98;10.60;;;;;;;;;;4913064;29;20543;-85
2021/09/04 00:46:27;;;;;;;16.65;10.50;;;;;;;;;;4937222;29;20039;-85
2021/09/04 00:48:53;;;;;;;17.05;10.75;;;;;;;;;;4918471;29;20058;-85
2021/09/04 00:51:18;;;;;;;16.83;10.38;;;;;;;;;;4929847;29;20043;-85
2021/09/04 00:53:44;;;;;;;19.38;10.35;;;;;;;;;;4911817;29;20058;-85
2021/09/04 00:56:13;;;;;;;17.30;10.60;;;;;;;;;;4932604;29;20043;-85
2021/09/04 00:58:38;;;;;;;18.98;10.25;;;;;;;;;;4931196;29;20043;-85
2021/09/04 01:01:04;;;;;;;16.15;9.90;;;;;;;;;;4914251;29;20386;-85
2021/09/04 01:03:29;;;;;;;18.17;10.45;;;;;;;;;;4900374;29;20103;-85
2021/09/04 01:05:55;;;;;;;19.48;10.30;;;;;;;;;;4894571;29;20134;-85
2021/09/04 01:08:21;;;;;;;15.77;9.85;;;;;;;;;;4912878;29;20027;-85
2021/09/04 01:10:50;;;;;;;17.92;10.52;;;;;;;;;;4923666;29;20054;-85
2021/09/04 01:13:16;;;;;;;19.52;10.25;;;;;;;;;;4921486;29;20170;-85
2021/09/04 01:15:43;;;;;;;17.27;10.40;;;;;;;;;;4901195;29;20150;-85
2021/09/04 01:18:08;;;;;;;18.08;10.32;;;;;;;;;;4933032;29;20476;-85
2021/09/04 01:20:34;;;;;;;21.83;11.10;;;;;;;;;;4940292;29;20126;-85
2021/09/04 01:23:00;;;;;;;20.38;10.63;;;;;;;;;;4934539;29;20039;-85
2021/09/04 01:25:31;;;;;;;16.85;10.52;;;;;;;;;;4934042;29;20522;-85
2021/09/04 01:27:59;;;;;;;17.10;10.00;;;;;;;;;;4932877;29;20035;-85
2021/09/04 01:30:25;;;;;;;19.48;11.05;;;;;;;;;;4936637;29;20487;-85
2021/09/04 01:32:50;;;;;;;17.73;10.60;;;;;;;;;;4912211;29;20032;-85
2021/09/04 01:35:20;;;;;;;18.08;11.52;;;;;;;;;;4932121;29;20167;-85
2021/09/04 01:37:46;;;;;;;18.65;10.32;;;;;;;;;;4929764;29;20436;-85
2021/09/04 01:40:12;;;;;;;15.90;10.20;;;;;;;;;;4938299;29;20411;-85
2021/09/04 01:42:41;;;;;;;20.27;11.10;;;;;;;;;;4914507;29;20042;-85
2021/09/04 01:45:07;;;;;;;17.70;10.63;;;;;;;;;;4933565;29;20539;-85
2021/09/04 01:47:32;;;;;;;19.30;10.80;;;;;;;;;;4913895;29;20035;-85
2021/09/04 01:49:58;;;;;;;18.42;10.48;;;;;;;;;;4935046;29;20031;-85
2021/09/04 01:52:24;;;;;;;17.45;10.88;;;;;;;;;;4915928;29;20065;-85
2021/09/04 01:54:50;;;;;;;17.30;10.82;;;;;;;;;;4935030;29;20046;-85
2021/09/04 01:57:16;;;;;;;17.63;10.25;;;;;;;;;;4932530;29;20062;-85
2021/09/04 01:59:42;;;;;;;17.77;10.40;;;;;;;;;;4930753;29;20036;-85
2021/09/04 02:02:07;;;;;;;18.10;10.77;;;;;;;;;;4915862;29;20038;-85
2021/09/04 02:04:33;;;;;;;21.13;10.75;;;;;;;;;;4916382;29;20127;-85
2021/09/04 02:06:59;;;;;;;21.40;11.32;;;;;;;;;;4926572;29;20039;-85
2021/09/04 02:09:24;;;;;;;19.08;11.60;;;;;;;;;;4935129;29;20035;-85
2021/09/04 02:11:50;;;;;;;18.85;11.13;;;;;;;;;;4933128;29;20039;-85
2021/09/04 02:14:15;;;;;;;20.95;11.48;;;;;;;;;;4916147;29;20050;-85
2021/09/04 02:16:41;;;;;;;20.10;10.95;;;;;;;;;;4931527;29;20039;-85
2021/09/04 02:19:07;;;;;;;18.55;10.88;;;;;;;;;;4913864;29;20038;-85
2021/09/04 02:21:32;;;;;;;18.77;10.48;;;;;;;;;;4918153;29;20387;-85
2021/09/04 02:23:58;;;;;;;21.63;11.70;;;;;;;;;;4932203;29;20039;-85
2021/09/04 02:26:23;;;;;;;18.20;10.48;;;;;;;;;;4901830;29;20059;-85
2021/09/04 02:28:48;;;;;;;16.90;10.25;;;;;;;;;;4893979;29;20134;-85
2021/09/04 02:31:15;;;;;;;18.65;11.23;;;;;;;;;;4913345;29;20032;-85
2021/09/04 02:33:41;;;;;;;18.80;11.25;;;;;;;;;;4917917;29;20456;-85
2021/09/04 02:36:07;;;;;;;18.23;10.63;;;;;;;;;;4932863;29;20126;-85
2021/09/04 02:38:33;;;;;;;19.80;11.07;;;;;;;;;;4935509;29;20040;-85
2021/09/04 02:40:58;;;;;;;20.65;11.18;;;;;;;;;;4900167;29;20127;-85
2021/09/04 02:43:24;;;;;;;22.10;11.10;;;;;;;;;;4901579;29;20433;-85
2021/09/04 02:45:49;;;;;;;19.98;11.10;;;;;;;;;;4907838;29;20031;-85
2021/09/04 02:48:15;;;;;;;17.52;10.38;;;;;;;;;;4914285;29;20448;-85
2021/09/04 02:50:40;;;;;;;20.13;10.52;;;;;;;;;;4917077;29;20075;-85
2021/09/04 02:53:07;;;;;;;19.20;10.80;;;;;;;;;;4900591;29;20073;-85
2021/09/04 02:55:33;;;;;;;18.20;10.40;;;;;;;;;;4937714;29;20039;-85
2021/09/04 02:57:59;;;;;;;18.65;10.40;;;;;;;;;;4936591;29;20041;-85
2021/09/04 03:00:25;;;;;;;17.15;10.77;;;;;;;;;;4932065;29;20032;-84
2021/09/04 03:02:50;;;;;;;19.65;11.05;;;;;;;;;;4924576;29;20488;-84
2021/09/04 03:05:16;;;;;;;23.17;10.88;;;;;;;;;;4915406;29;20050;-84
2021/09/04 03:07:41;;;;;;;21.20;10.85;;;;;;;;;;4896793;29;20039;-84
2021/09/04 03:10:07;;;;;;;20.65;10.65;;;;;;;;;;4915800;29;20110;-84
2021/09/04 03:12:33;;;;;;;18.75;10.82;;;;;;;;;;4922155;29;20091;-84
2021/09/04 03:14:58;;;;;;;21.33;11.60;;;;;;;;;;4912722;29;20062;-84
2021/09/04 03:17:23;;;;;;;19.38;11.10;;;;;;;;;;4897419;29;20471;-84
2021/09/04 03:19:49;;;;;;;22.20;10.88;;;;;;;;;;4917933;29;20047;-84
2021/09/04 03:22:14;;;;;;;17.27;10.90;;;;;;;;;;4909111;29;20408;-84
2021/09/04 03:24:40;;;;;;;17.92;11.13;;;;;;;;;;4913288;29;20046;-84
2021/09/04 03:27:06;;;;;;;18.23;10.48;;;;;;;;;;4902051;29;20039;-84
2021/09/04 03:29:32;;;;;;;19.52;10.27;;;;;;;;;;4915421;29;20659;-84
2021/09/04 03:31:57;;;;;;;16.88;9.85;;;;;;;;;;4918729;29;20662;-84
2021/09/04 03:34:22;;;;;;;21.05;11.77;;;;;;;;;;4914946;29;20039;-84
2021/09/04 03:36:48;;;;;;;19.77;11.02;;;;;;;;;;4911459;29;20043;-84
2021/09/04 03:39:13;;;;;;;19.15;11.30;;;;;;;;;;4915623;29;20042;-84
2021/09/04 03:41:39;;;;;;;20.15;11.38;;;;;;;;;;4933184;28;20031;-84
2021/09/04 03:44:04;;;;;;;22.98;12.20;;;;;;;;;;4917660;29;20531;-85
2021/09/04 03:46:29;;;;;;;19.13;11.57;;;;;;;;;;4905187;29;20040;-85
2021/09/04 03:48:59;;;;;;;19.08;11.95;;;;;;;;;;4932563;29;20042;-85
2021/09/04 03:51:26;;;;;;;21.45;12.13;;;;;;;;;;4935247;29;20083;-84
2021/09/04 03:53:51;;;;;;;23.50;12.98;;;;;;;;;;4913989;29;20047;-84
2021/09/04 03:56:17;;;;;;;20.55;12.13;;;;;;;;;;4930829;29;20646;-84
2021/09/04 03:58:42;;;;;;;23.27;13.55;;;;;;;;;;4903471;29;20036;-84
2021/09/04 04:01:07;;;;;;;19.83;12.10;;;;;;;;;;4898228;29;20488;-84
2021/09/04 04:03:33;;;;;;;21.55;12.45;;;;;;;;;;4898663;29;20043;-84
2021/09/04 04:05:58;;;;;;;23.67;12.75;;;;;;;;;;4901260;29;20556;-84
2021/09/04 04:08:24;;;;;;;21.40;12.48;;;;;;;;;;4914527;29;20024;-84
2021/09/04 04:10:49;;;;;;;23.63;12.73;;;;;;;;;;4911367;29;20407;-84
2021/09/04 04:13:15;;;;;;;22.63;13.27;;;;;;;;;;4902377;29;20109;-85
2021/09/04 04:15:40;;;;;;;25.73;13.18;;;;;;;;;;4930919;29;20038;-84
2021/09/04 04:18:05;;;;;;;22.77;13.30;;;;;;;;;;4924728;29;20763;-84
2021/09/04 04:20:31;;;;;;;23.85;13.32;;;;;;;;;;4932091;29;20099;-84
2021/09/04 04:22:56;;;;;;;21.92;13.82;;;;;;;;;;4932242;29;20094;-85
2021/09/04 04:25:22;;;;;;;20.30;13.27;;;;;;;;;;4929103;29;20039;-85
2021/09/04 04:27:47;;;;;;;22.05;12.43;;;;;;;;;;4938043;29;20499;-84
2021/09/04 04:30:13;;;;;;;22.67;12.95;;;;;;;;;;4931734;29;20504;-84
2021/09/04 04:32:38;;;;;;;22.98;13.27;;;;;;;;;;4917914;29;20495;-84
2021/09/04 04:35:04;;;;;;;21.92;13.43;;;;;;;;;;4929488;29;20431;-84
2021/09/04 04:37:29;;;;;;;21.25;13.35;;;;;;;;;;4910466;29;20031;-84
2021/09/04 04:39:55;;;;;;;23.85;14.07;;;;;;;;;;4899077;29;20039;-84
2021/09/04 04:42:20;;;;;;;23.23;13.63;;;;;;;;;;4927372;29;20078;-84
2021/09/04 04:44:46;;;;;;;22.40;13.60;;;;;;;;;;4931282;29;20035;-84
2021/09/04 04:47:11;;;;;;;22.42;13.77;;;;;;;;;;4912838;29;20043;-84
2021/09/04 04:49:37;;;;;;;24.00;14.48;;;;;;;;;;4899926;29;20508;-85
2021/09/04 04:52:02;;;;;;;23.73;14.35;;;;;;;;;;4910211;29;20042;-84
2021/09/04 04:54:28;;;;;;;26.95;14.18;;;;;;;;;;4912105;29;20467;-84
2021/09/04 04:56:53;;;;;;;22.60;13.55;;;;;;;;;;4926346;29;20095;-84
2021/09/04 04:59:19;;;;;;;22.67;13.77;;;;;;;;;;4914439;29;20122;-84
2021/09/04 05:01:44;;;;;;;22.73;13.18;;;;;;;;;;4898180;29;20027;-84
2021/09/04 05:04:10;;;;;;;24.05;13.68;;;;;;;;;;4898905;29;20035;-84
2021/09/04 05:06:35;;;;;;;26.90;13.80;;;;;;;;;;4913283;29;20032;-84
2021/09/04 05:09:00;;;;;;;26.13;14.38;;;;;;;;;;4930542;29;20376;-84
2021/09/04 05:11:26;;;;;;;26.23;13.95;;;;;;;;;;4930611;29;20091;-84
2021/09/04 05:13:51;;;;;;;25.95;14.73;;;;;;;;;;4915282;29;20179;-84
2021/09/04 05:16:17;;;;;;;29.20;14.65;;;;;;;;;;4932117;29;20032;-84
2021/09/04 05:18:42;;;;;;;28.38;15.32;;;;;;;;;;4929374;29;20051;-84
2021/09/04 05:21:09;;;;;;;25.77;14.38;;;;;;;;;;4913315;29;20044;-84
2021/09/04 05:23:34;;;;;;;26.77;14.43;;;;;;;;;;4929469;29;20039;-84
2021/09/04 05:26:00;;;;;;;24.13;14.32;;;;;;;;;;4932751;29;20110;-84
2021/09/04 05:28:25;;;;;;;23.70;13.60;;;;;;;;;;4930427;29;20114;-85
2021/09/04 05:30:50;;;;;;;23.73;14.50;;;;;;;;;;4911822;29;20038;-84
2021/09/04 05:33:16;;;;;;;25.27;15.13;;;;;;;;;;4915486;29;20035;-84
2021/09/04 05:35:43;;;;;;;25.85;14.75;;;;;;;;;;4932870;29;20048;-84
2021/09/04 05:38:09;;;;;;;24.83;14.35;;;;;;;;;;4898103;29;20586;-84
2021/09/04 05:40:34;;;;;;;22.95;14.25;;;;;;;;;;4931352;29;20043;-84
2021/09/04 05:43:00;;;;;;;24.52;13.77;;;;;;;;;;4929227;29;20034;-85
2021/09/04 05:45:25;;;;;;;23.67;14.10;;;;;;;;;;4933933;29;20058;-84
2021/09/04 05:47:50;;;;;;;27.15;14.30;;;;;;;;;;4931768;29;20039;-84
2021/09/04 05:50:16;;;;;;;24.90;14.38;;;;;;;;;;4912990;29;20031;-84
2021/09/04 05:52:42;;;;;;;25.38;14.75;;;;;;;;;;4931938;29;20111;-84
2021/09/04 05:55:07;;;;;;;22.45;13.50;;;;;;;;;;4931733;29;20027;-84
2021/09/04 05:57:33;;;;;;;25.40;13.02;;;;;;;;;;4911841;29;20032;-85
2021/09/04 05:59:58;;;;;;;23.70;13.52;;;;;;;;;;4916360;29;20698;-84
2021/09/04 06:02:24;;;;;;;22.27;13.93;;;;;;;;;;4921906;29;20040;-84
2021/09/04 06:04:49;;;;;;;23.98;13.10;;;;;;;;;;4933024;29;20518;-83
2021/09/04 06:07:15;;;;;;;20.52;12.75;;;;;;;;;;4903512;29;20087;-84
2021/09/04 06:09:40;;;;;;;23.75;14.32;;;;;;;;;;4930427;29;20039;-84
2021/09/04 06:12:06;;;;;;;24.80;13.68;;;;;;;;;;4914766;29;20491;-85
2021/09/04 06:14:31;;;;;;;25.17;13.85;;;;;;;;;;4935220;29;20035;-84
2021/09/04 06:16:57;;;;;;;23.58;13.57;;;;;;;;;;4917855;29;20546;-85
2021/09/04 06:19:22;;;;;;;27.30;14.90;;;;;;;;;;4933641;29;20126;-85
2021/09/04 06:21:48;;;;;;;29.67;15.27;;;;;;;;;;4936652;29;20045;-84
2021/09/04 06:24:13;;;;;;;24.77;14.02;;;;;;;;;;4916554;29;20079;-85
2021/09/04 06:26:39;;;;;;;27.67;15.02;;;;;;;;;;4931983;29;20042;-85
2021/09/04 06:29:04;;;;;;;26.27;14.23;;;;;;;;;;4919621;29;20587;-85
2021/09/04 06:31:30;;;;;;;27.70;15.38;;;;;;;;;;4902654;29;20028;-84
2021/09/04 06:33:55;;;;;;;25.58;14.80;;;;;;;;;;4916209;29;20043;-84
2021/09/04 06:36:23;;;;;;;26.35;14.95;;;;;;;;;;4930537;29;20030;-85
2021/09/04 06:38:48;;;;;;;26.92;14.45;;;;;;;;;;4934575;29;20024;-84
2021/09/04 06:41:15;;;;;;;31.00;15.68;;;;;;;;;;4924997;29;20035;-84
2021/09/04 06:43:40;;;;;;;27.95;14.60;;;;;;;;;;4920402;29;20072;-84
2021/09/04 06:46:06;;;;;;;27.35;14.10;;;;;;;;;;4934457;29;20039;-84
2021/09/04 06:48:31;;;;;;;30.63;15.13;;;;;;;;;;4940693;29;20079;-84
2021/09/04 06:50:57;;;;;;;27.10;14.55;;;;;;;;;;4928935;29;20039;-84
2021/09/04 06:53:22;;;;;;;30.42;14.52;;;;;;;;;;4922617;29;20042;-85
2021/09/04 06:55:58;;;;;;;26.50;15.10;;;;;;;;;;4932801;29;20036;-84
2021/09/04 06:58:26;;;;;;;27.27;14.95;;;;;;;;;;4925223;29;20066;-85
2021/09/04 07:00:51;;;;;;;30.08;15.30;;;;;;;;;;4933043;29;20118;-85
2021/09/04 07:03:17;;;;;;;25.70;14.27;;;;;;;;;;4917622;29;20578;-85
2021/09/04 07:05:57;;;;;;;26.92;13.73;;;;;;;;;;4935145;29;20027;-85
2021/09/04 07:08:22;;;;;;;25.08;13.85;;;;;;;;;;4925626;29;20400;-85
2021/09/04 07:11:22;;;;;;;24.15;13.77;;;;;;;;;;4912948;29;20396;-85
2021/09/04 07:18:50;;;;;;;27.20;13.93;;;;;;;;;;4898418;29;20460;-85
2021/09/04 07:36:08;;;;;;;;;;;;;;;;;;;;;
2021/09/04 07:39:48;;;;;;;;;;;;;;;;;;;;;
2021/09/04 07:44:10;;;;;;;25.58;14.18;;;;;;;;;;4763768;30;20032;-85
2021/09/04 08:39:42;;;;;;;;;;;;;;;;;;;;;
2021/09/04 08:44:08;;;;;;;;;;;;;;;;;;;;;
2021/09/04 11:00:56;;;;;;;18.77;12.43;;;;;;;;;;4805676;29;20050;-86
2021/09/04 11:03:23;;;;;;;17.10;11.93;;;;;;;;;;4761234;29;20047;-86
2021/09/04 11:05:57;;;;;;;18.25;12.68;;;;;;;;;;4786360;29;20035;-86
2021/09/04 11:08:37;;;;;;;17.75;12.40;;;;;;;;;;4779550;29;20084;-86
2021/09/04 11:11:27;;;;;;;17.42;11.65;;;;;;;;;;4775929;29;20129;-86
2021/09/04 11:13:58;;;;;;;17.98;12.48;;;;;;;;;;4785289;29;20463;-85
2021/09/04 11:16:26;;;;;;;18.00;12.23;;;;;;;;;;4794970;29;20033;-86
2021/09/04 11:19:34;;;;;;;19.27;12.65;;;;;;;;;;4787535;29;20066;-85
2021/09/04 11:22:10;;;;;;;19.75;12.00;;;;;;;;;;4753287;30;20036;-85
2021/09/04 11:24:46;;;;;;;18.15;12.50;;;;;;;;;;4770471;30;20409;-85
2021/09/04 11:28:08;;;;;;;;;;;;;;;;;;;;;
2021/09/04 11:30:34;;;;;;;19.00;12.40;;;;;;;;;;4795189;29;20031;-85
2021/09/04 11:33:52;;;;;;;18.52;12.35;;;;;;;;;;4784960;29;20133;-85
2021/09/04 11:36:36;;;;;;;15.32;12.10;;;;;;;;;;4811904;29;20039;-86
2021/09/04 11:39:02;;;;;;;;;;;;;;;;;;4812558;29;20129;-84
2021/09/04 11:41:28;;;;;;;16.60;11.65;;;;;;;;;;4793552;29;19917;-85
2021/09/04 11:43:55;;;;;;;17.42;12.80;;;;;;;;;;4801014;29;20500;-84
2021/09/04 11:46:50;;;;;;;18.42;12.27;;;;;;;;;;4812271;29;20030;-85
2021/09/04 11:49:23;;;;;;;15.80;11.75;;;;;;;;;;4755553;29;20041;-86
2021/09/04 11:51:56;;;;;;;16.92;12.25;;;;;;;;;;4793500;29;20031;-85
2021/09/04 11:54:38;;;;;;;18.70;13.27;;;;;;;;;;4796384;29;20039;-85
2021/09/04 11:57:28;;;;;;;18.20;13.02;;;;;;;;;;4781006;29;20039;-84
2021/09/04 12:00:05;;;;;;;19.15;13.30;;;;;;;;;;4781240;29;20054;-84
2021/09/04 12:03:32;;;;;;;17.17;12.37;;;;;;;;;;4795213;29;20061;-85
2021/09/04 12:06:48;;;;;;;;;;;;;;;;;;;;;
2021/09/04 12:09:23;;;;;;;16.13;11.90;;;;;;;;;;4804792;29;20451;-85
2021/09/04 12:11:54;;;;;;;16.27;12.18;;;;;;;;;;4795603;29;20088;-85
2021/09/04 12:14:25;;;;;;;19.55;12.32;;;;;;;;;;4782529;29;20500;-85
2021/09/04 12:16:58;;;;;;;19.17;12.75;;;;;;;;;;4770632;29;20041;-85
2021/09/04 12:19:24;;;;;;;18.45;12.55;;;;;;;;;;4759089;29;20053;-85
2021/09/04 12:21:57;;;;;;;18.23;12.35;;;;;;;;;;4777483;30;20111;-85
2021/09/04 12:24:33;;;;;;;18.10;12.77;;;;;;;;;;4763019;30;20043;-85
2021/09/04 12:27:03;;;;;;;17.13;12.68;;;;;;;;;;4763138;30;20055;-84
2021/09/04 12:29:37;;;;;;;16.35;11.43;;;;;;;;;;4762759;30;20041;-85
2021/09/04 12:32:49;;;;;;;17.52;11.88;;;;;;;;;;4749052;30;20039;-85
2021/09/04 12:35:20;;;;;;;15.82;11.35;;;;;;;;;;4768020;30;20031;-85
2021/09/04 12:37:56;;;;;;;16.80;11.32;;;;;;;;;;4724725;30;20513;-85
2021/09/04 12:40:21;;;;;;;15.90;11.63;;;;;;;;;;4747389;30;20136;-85
2021/09/04 12:42:58;;;;;;;17.75;10.95;;;;;;;;;;4729838;30;20564;-85
2021/09/04 12:45:23;;;;;;;18.42;12.15;;;;;;;;;;4751201;30;20516;-85
2021/09/04 12:47:52;;;;;;;17.67;11.90;;;;;;;;;;4750130;30;20044;-84
2021/09/04 12:50:24;;;;;;;14.95;10.80;;;;;;;;;;4755227;30;20046;-85
2021/09/04 12:53:07;;;;;;;17.55;11.75;;;;;;;;;;4788132;29;20062;-85
2021/09/04 12:56:11;;;;;;;16.73;11.67;;;;;;;;;;4772306;29;20049;-85
2021/09/04 13:08:49;;;;;;;19.30;12.82;;;;;;;;;;4804196;29;20042;-86
2021/09/04 13:11:15;;;;;;;16.85;11.15;;;;;;;;;;4771435;29;20039;-86
2021/09/04 13:13:40;;;;;;;16.90;11.30;;;;;;;;;;4774490;29;20050;-86
2021/09/04 13:16:06;;;;;;;17.23;11.13;;;;;;;;;;4787597;29;20070;-86
2021/09/04 13:18:32;;;;;;;16.50;11.60;;;;;;;;;;4775893;30;20046;-86
2021/09/04 13:21:00;;;;;;;16.50;11.43;;;;;;;;;;4763163;29;20142;-86
2021/09/04 13:23:25;;;;;;;18.52;12.05;;;;;;;;;;4778743;29;20038;-86
2021/09/04 13:30:09;;;;;;;;;;;;;;;;;;;;;
2021/09/04 13:32:46;;;;;;;16.52;11.88;;;;;;;;;;4801622;29;20049;-86
2021/09/04 13:35:15;;;;;;;17.92;11.73;;;;;;;;;;4778513;29;20041;-86
2021/09/04 13:37:40;;;;;;;16.77;12.25;;;;;;;;;;4780514;29;20038;-86
2021/09/04 13:40:26;;;;;;;17.67;11.52;;;;;;;;;;4777600;29;20047;-86
2021/09/04 13:42:52;;;;;;;17.52;11.13;;;;;;;;;;4793605;29;20506;-86
2021/09/04 13:45:17;;;;;;;17.00;12.00;;;;;;;;;;4778684;29;20066;-86
2021/09/04 13:47:44;;;;;;;18.83;12.90;;;;;;;;;;4796009;29;20125;-86
2021/09/04 13:50:09;;;;;;;18.98;12.82;;;;;;;;;;4799163;29;20133;-86
2021/09/04 13:52:35;;;;;;;22.27;12.23;;;;;;;;;;4794666;29;20535;-86
2021/09/04 13:55:00;;;;;;;18.13;11.75;;;;;;;;;;4794959;29;20033;-87
2021/09/04 13:57:26;;;;;;;19.00;11.77;;;;;;;;;;4798609;29;20588;-86
2021/09/04 14:00:57;;;;;;;20.15;12.35;;;;;;;;;;4792564;29;20058;-86
2021/09/04 14:03:22;;;;;;;17.30;12.88;;;;;;;;;;4678190;30;20038;-85
2021/09/04 14:05:48;;;;;;;20.33;12.77;;;;;;;;;;4688568;30;20770;-86
2021/09/04 14:08:13;;;;;;;18.23;12.80;;;;;;;;;;4665400;30;20140;-86
2021/09/04 14:11:22;;;;;;;21.40;14.13;;;;;;;;;;4703156;30;20073;-85
2021/09/04 14:14:43;;;;;;;21.17;13.93;;;;;;;;;;4715699;29;20048;-85
2021/09/04 14:17:08;;;;;;;18.10;13.77;;;;;;;;;;4787576;29;20087;-85
2021/09/04 14:19:34;;;;;;;20.20;13.75;;;;;;;;;;4776427;29;20047;-85
2021/09/04 14:22:34;;;;;;;18.02;13.20;;;;;;;;;;4781678;29;20042;-86
2021/09/04 14:24:59;;;;;;;19.63;13.60;;;;;;;;;;4809154;29;20447;-85
2021/09/04 14:28:08;;;;;;;24.30;14.15;;;;;;;;;;4773016;29;20070;-86
2021/09/04 14:34:19;;;;;;;17.33;12.82;;;;;;;;;;4808594;29;20034;-85
2021/09/04 14:40:27;;;;;;;;;;;;;;;;;;4771618;30;20038;-85
2021/09/04 14:42:54;;;;;;;23.63;13.68;;;;;;;;;;4757353;30;19918;-85
2021/09/04 14:46:07;;;;;;;19.23;13.57;;;;;;;;;;4783101;29;20035;-85
2021/09/04 14:48:36;;;;;;;21.30;13.57;;;;;;;;;;4774812;29;20404;-85
2021/09/04 14:54:29;;;;;;;19.65;12.95;;;;;;;;;;4805386;29;20055;-86
2021/09/04 14:56:54;;;;;;;22.70;14.18;;;;;;;;;;4758090;30;20396;-86
2021/09/04 14:59:20;;;;;;;19.58;12.48;;;;;;;;;;4788121;29;20055;-86
2021/09/04 15:01:48;;;;;;;18.85;13.00;;;;;;;;;;4756905;30;20051;-86
2021/09/04 15:04:14;;;;;;;18.90;13.35;;;;;;;;;;4773305;29;20122;-85
2021/09/04 15:06:44;;;;;;;20.55;13.00;;;;;;;;;;4775959;29;20134;-85
2021/09/04 15:09:09;;;;;;;17.25;12.57;;;;;;;;;;4767586;29;20125;-85
2021/09/04 15:11:35;;;;;;;18.20;13.00;;;;;;;;;;4772644;29;20183;-85
2021/09/04 15:14:01;;;;;;;16.75;12.38;;;;;;;;;;4773696;29;20049;-85
2021/09/04 15:16:34;;;;;;;16.58;12.68;;;;;;;;;;4784959;29;20062;-86
2021/09/04 15:19:11;;;;;;;19.58;13.10;;;;;;;;;;4769617;30;20051;-85
2021/09/04 15:21:39;;;;;;;19.90;12.82;;;;;;;;;;4793963;29;20030;-85
2021/09/04 15:24:08;;;;;;;15.55;11.98;;;;;;;;;;4773816;29;20072;-85
2021/09/04 15:26:33;;;;;;;19.10;11.75;;;;;;;;;;4760822;30;20072;-85
2021/09/04 15:29:02;;;;;;;16.65;12.07;;;;;;;;;;4772869;29;20035;-85
2021/09/04 15:35:07;;;;;;;17.13;11.35;;;;;;;;;;4758362;30;20534;-86
2021/09/04 15:37:34;;;;;;;19.15;12.73;;;;;;;;;;4753671;30;20071;-86
2021/09/04 15:39:59;;;;;;;16.90;11.98;;;;;;;;;;4754557;30;20051;-86
2021/09/04 15:42:30;;;;;;;18.45;11.95;;;;;;;;;;4731324;30;20080;-86
2021/09/04 15:45:17;;;;;;;18.27;11.73;;;;;;;;;;4803418;29;20038;-85
2021/09/04 15:47:42;;;;;;;18.67;11.88;;;;;;;;;;4780782;29;20031;-86
2021/09/04 15:50:11;;;;;;;14.48;10.27;;;;;;;;;;4786355;29;20035;-85
2021/09/04 15:52:36;;;;;;;18.77;11.85;;;;;;;;;;4768818;29;20488;-86
2021/09/04 15:55:02;;;;;;;17.33;11.43;;;;;;;;;;4786422;29;20041;-86
2021/09/04 15:57:27;;;;;;;17.27;11.90;;;;;;;;;;4755482;29;20424;-85
2021/09/04 15:59:53;;;;;;;17.02;12.07;;;;;;;;;;4770684;29;20055;-86
2021/09/04 16:02:18;;;;;;;18.23;11.93;;;;;;;;;;4769420;29;20080;-86
2021/09/04 16:04:44;;;;;;;15.35;11.98;;;;;;;;;;4778407;29;20420;-86
2021/09/04 16:07:09;;;;;;;20.67;11.30;;;;;;;;;;4783421;29;20064;-86
2021/09/04 16:09:35;;;;;;;20.40;11.23;;;;;;;;;;4800642;29;20035;-86
2021/09/04 16:12:01;;;;;;;18.60;11.43;;;;;;;;;;4767387;29;20488;-85
2021/09/04 16:14:27;;;;;;;17.55;12.05;;;;;;;;;;4785106;29;20119;-85
2021/09/04 16:16:52;;;;;;;19.85;11.48;;;;;;;;;;4797692;29;20031;-85
2021/09/04 16:19:18;;;;;;;16.80;10.68;;;;;;;;;;4770024;29;20386;-85
2021/09/04 16:21:43;;;;;;;14.57;10.93;;;;;;;;;;4773340;29;20046;-85
2021/09/04 16:24:38;;;;;;;17.02;11.55;;;;;;;;;;4786740;29;20134;-85
2021/09/04 16:27:20;;;;;;;15.80;10.60;;;;;;;;;;4792044;29;20141;-85
2021/09/04 16:30:00;;;;;;;14.45;10.77;;;;;;;;;;4769131;29;20121;-85
2021/09/04 16:35:00;;;;;;;15.48;10.85;;;;;;;;;;4805138;29;20043;-85
2021/09/04 16:37:26;;;;;;;14.23;10.82;;;;;;;;;;4791483;29;20046;-85
2021/09/04 16:39:51;;;;;;;14.93;11.10;;;;;;;;;;4777294;29;20060;-86
2021/09/04 16:42:17;;;;;;;15.48;10.82;;;;;;;;;;4775818;29;20045;-85
2021/09/04 16:44:42;;;;;;;17.60;10.90;;;;;;;;;;4790788;29;20618;-85
2021/09/04 16:47:08;;;;;;;16.92;10.77;;;;;;;;;;4821117;29;20034;-84
2021/09/04 16:49:33;;;;;;;16.85;11.00;;;;;;;;;;4755690;30;20043;-85
2021/09/04 16:52:02;;;;;;;16.73;9.98;;;;;;;;;;4786776;29;20027;-84
2021/09/04 16:54:27;;;;;;;15.30;10.50;;;;;;;;;;4785109;29;20275;-84
2021/09/04 16:57:00;;;;;;;16.83;10.18;;;;;;;;;;4763055;29;20041;-85
2021/09/04 16:59:30;;;;;;;15.05;10.75;;;;;;;;;;4786227;29;20049;-85
2021/09/04 17:02:03;;;;;;;17.17;10.60;;;;;;;;;;4776339;30;20045;-84
2021/09/04 17:04:40;;;;;;;;;;;;;;;;;;;;;
2021/09/04 17:07:06;;;;;;;12.75;9.73;;;;;;;;;;4777879;29;20054;-85
2021/09/04 17:09:31;;;;;;;15.77;11.00;;;;;;;;;;4802656;29;20035;-85
2021/09/04 17:12:01;;;;;;;16.77;10.43;;;;;;;;;;4780085;29;20038;-85
2021/09/04 17:14:31;;;;;;;17.15;11.10;;;;;;;;;;4770604;29;20506;-85
2021/09/04 17:17:06;;;;;;;14.68;11.00;;;;;;;;;;4776707;29;20054;-84
2021/09/04 17:19:31;;;;;;;14.27;10.23;;;;;;;;;;4763412;29;20051;-84
2021/09/04 17:21:57;;;;;;;14.80;10.48;;;;;;;;;;4778147;29;20042;-85
2021/09/04 17:24:22;;;;;;;16.98;10.52;;;;;;;;;;4764377;29;20034;-85
2021/09/04 17:27:08;;;;;;;15.75;10.15;;;;;;;;;;4794223;29;20066;-84
2021/09/04 17:29:33;;;;;;;14.70;10.25;;;;;;;;;;4794080;29;20346;-85
2021/09/04 17:32:08;;;;;;;16.88;10.75;;;;;;;;;;4750432;29;20085;-84
2021/09/04 17:34:34;;;;;;;14.80;10.50;;;;;;;;;;4779452;29;20054;-84
2021/09/04 17:37:08;;;;;;;14.65;10.52;;;;;;;;;;4788999;29;20479;-84
2021/09/04 17:39:35;;;;;;;15.95;10.40;;;;;;;;;;4789288;29;20082;-84
2021/09/04 17:42:08;;;;;;;16.02;10.13;;;;;;;;;;4777349;29;20066;-84
2021/09/04 17:44:36;;;;;;;14.23;10.20;;;;;;;;;;4782283;29;20046;-83
2021/09/04 17:47:08;;;;;;;14.60;9.93;;;;;;;;;;4779319;29;20392;-84
2021/09/04 17:49:39;;;;;;;14.60;10.27;;;;;;;;;;4778711;29;20037;-83
2021/09/04 17:52:04;;;;;;;14.85;10.10;;;;;;;;;;4790983;29;20038;-84
2021/09/04 17:54:30;;;;;;;15.50;10.05;;;;;;;;;;4776057;29;20053;-83
2021/09/04 17:56:56;;;;;;;14.27;10.02;;;;;;;;;;4783929;29;20035;-85
2021/09/04 17:59:21;;;;;;;13.48;9.43;;;;;;;;;;4809397;29;20041;-84
2021/09/04 18:01:47;;;;;;;14.88;10.45;;;;;;;;;;4795449;29;20077;-84
2021/09/04 18:04:12;;;;;;;19.30;10.90;;;;;;;;;;4783917;29;20042;-84
2021/09/04 18:06:44;;;;;;;16.10;10.45;;;;;;;;;;4785982;29;20475;-84
2021/09/04 18:09:10;;;;;;;13.18;10.00;;;;;;;;;;4795972;29;20062;-85
2021/09/04 18:11:38;;;;;;;16.55;11.13;;;;;;;;;;4784524;29;20575;-83
2021/09/04 18:14:09;;;;;;;17.75;10.75;;;;;;;;;;4789017;29;20042;-85
2021/09/04 18:16:42;;;;;;;17.92;11.20;;;;;;;;;;4794432;29;20046;-82
2021/09/04 18:19:12;;;;;;;17.10;11.23;;;;;;;;;;4801765;29;20095;-85
2021/09/04 18:21:44;;;;;;;16.13;11.25;;;;;;;;;;4798860;29;20073;-85
2021/09/04 18:24:12;;;;;;;17.30;10.93;;;;;;;;;;4797085;29;20034;-83
2021/09/04 18:26:49;;;;;;;15.13;11.27;;;;;;;;;;4798664;29;20050;-84
2021/09/04 18:29:15;;;;;;;16.60;11.23;;;;;;;;;;4782483;29;20038;-84
2021/09/04 18:31:45;;;;;;;14.48;10.75;;;;;;;;;;4795786;29;20042;-84
2021/09/04 18:34:14;;;;;;;16.92;11.00;;;;;;;;;;4900327;24;20423;-84
2021/09/04 18:36:46;;;;;;;18.08;11.80;;;;;;;;;;4768755;29;20141;-85
2021/09/04 18:39:14;;;;;;;16.85;12.20;;;;;;;;;;4784174;29;20039;-83
2021/09/04 18:42:15;;;;;;;16.88;11.57;;;;;;;;;;4763631;30;20043;-83